sensor_id;sensor_type;location;lat;lon;timestamp;P1;durP1;ratioP1;P2;durP2;ratioP2
29044;SDS011;16133;49.486;12.176;2022-11-25T00:00:53;16.02;;;8.45;;
29044;SDS011;16133;49.486;12.176;2022-11-25T00:03:18;15.63;;;8.20;;
29044;SDS011;16133;49.486;12.176;2022-11-25T00:05:44;19.08;;;8.43;;
29044;SDS011;16133;49.486;12.176;2022-11-25T00:08:09;19.98;;;8.90;;
29044;SDS011;16133;49.486;12.176;2022-11-25T00:10:35;23.58;;;9.15;;
29044;SDS011;16133;49.486;12.176;2022-11-25T00:13:00;16.77;;;8.38;;
29044;SDS011;16133;49.486;12.176;2022-11-25T00:15:25;18.95;;;9.55;;
29044;SDS011;16133;49.486;12.176;2022-11-25T00:17:51;18.13;;;8.85;;
29044;SDS011;16133;49.486;12.176;2022-11-25T00:20:16;20.35;;;9.02;;
29044;SDS011;16133;49.486;12.176;2022-11-25T00:22:45;17.77;;;8.13;;
29044;SDS011;16133;49.486;12.176;2022-11-25T00:25:11;15.60;;;8.15;;
29044;SDS011;16133;49.486;12.176;2022-11-25T00:27:36;16.20;;;8.38;;
29044;SDS011;16133;49.486;12.176;2022-11-25T00:30:02;21.08;;;9.48;;
29044;SDS011;16133;49.486;12.176;2022-11-25T00:32:28;15.98;;;8.43;;
29044;SDS011;16133;49.486;12.176;2022-11-25T00:34:53;17.10;;;8.20;;
29044;SDS011;16133;49.486;12.176;2022-11-25T00:37:19;13.57;;;7.40;;
29044;SDS011;16133;49.486;12.176;2022-11-25T00:39:44;14.10;;;7.00;;
29044;SDS011;16133;49.486;12.176;2022-11-25T00:42:09;12.55;;;7.07;;
29044;SDS011;16133;49.486;12.176;2022-11-25T00:44:53;11.80;;;6.22;;
29044;SDS011;16133;49.486;12.176;2022-11-25T00:47:19;15.20;;;6.03;;
29044;SDS011;16133;49.486;12.176;2022-11-25T00:49:49;11.52;;;5.80;;
29044;SDS011;16133;49.486;12.176;2022-11-25T00:52:17;10.32;;;5.60;;
29044;SDS011;16133;49.486;12.176;2022-11-25T00:54:45;11.32;;;6.10;;
29044;SDS011;16133;49.486;12.176;2022-11-25T00:57:11;11.55;;;6.70;;
29044;SDS011;16133;49.486;12.176;2022-11-25T00:59:37;13.45;;;7.18;;
29044;SDS011;16133;49.486;12.176;2022-11-25T01:02:03;13.10;;;7.22;;
29044;SDS011;16133;49.486;12.176;2022-11-25T01:04:28;16.27;;;8.10;;
29044;SDS011;16133;49.486;12.176;2022-11-25T01:06:54;21.40;;;8.93;;
29044;SDS011;16133;49.486;12.176;2022-11-25T01:09:21;17.92;;;8.65;;
29044;SDS011;16133;49.486;12.176;2022-11-25T01:11:50;18.13;;;8.00;;
29044;SDS011;16133;49.486;12.176;2022-11-25T01:14:16;18.17;;;8.75;;
29044;SDS011;16133;49.486;12.176;2022-11-25T01:16:42;20.00;;;7.93;;
29044;SDS011;16133;49.486;12.176;2022-11-25T01:19:07;23.30;;;8.90;;
29044;SDS011;16133;49.486;12.176;2022-11-25T01:21:34;17.67;;;7.65;;
29044;SDS011;16133;49.486;12.176;2022-11-25T01:24:00;18.05;;;7.65;;
29044;SDS011;16133;49.486;12.176;2022-11-25T01:26:28;16.33;;;7.80;;
29044;SDS011;16133;49.486;12.176;2022-11-25T01:28:55;16.80;;;7.75;;
29044;SDS011;16133;49.486;12.176;2022-11-25T01:31:26;16.25;;;7.13;;
29044;SDS011;16133;49.486;12.176;2022-11-25T01:33:56;13.57;;;7.15;;
29044;SDS011;16133;49.486;12.176;2022-11-25T01:36:31;13.30;;;6.40;;
29044;SDS011;16133;49.486;12.176;2022-11-25T01:38:57;11.82;;;6.07;;
29044;SDS011;16133;49.486;12.176;2022-11-25T01:41:25;12.13;;;6.55;;
29044;SDS011;16133;49.486;12.176;2022-11-25T01:44:12;11.82;;;6.45;;
29044;SDS011;16133;49.486;12.176;2022-11-25T01:49:25;11.10;;;6.38;;
29044;SDS011;16133;49.486;12.176;2022-11-25T01:57:36;13.38;;;7.00;;
29044;SDS011;16133;49.486;12.176;2022-11-25T02:00:23;12.05;;;6.60;;
29044;SDS011;16133;49.486;12.176;2022-11-25T02:02:50;15.07;;;6.70;;
29044;SDS011;16133;49.486;12.176;2022-11-25T02:05:19;13.20;;;6.85;;
29044;SDS011;16133;49.486;12.176;2022-11-25T02:07:49;15.50;;;7.38;;
29044;SDS011;16133;49.486;12.176;2022-11-25T02:10:23;13.93;;;6.70;;
29044;SDS011;16133;49.486;12.176;2022-11-25T02:12:51;15.20;;;7.10;;
29044;SDS011;16133;49.486;12.176;2022-11-25T02:15:18;12.30;;;5.50;;
29044;SDS011;16133;49.486;12.176;2022-11-25T02:17:44;11.27;;;6.07;;
29044;SDS011;16133;49.486;12.176;2022-11-25T02:20:12;11.45;;;5.60;;
29044;SDS011;16133;49.486;12.176;2022-11-25T02:25:10;9.65;;;5.35;;
29044;SDS011;16133;49.486;12.176;2022-11-25T02:30:40;10.52;;;5.53;;
29044;SDS011;16133;49.486;12.176;2022-11-25T02:33:06;9.73;;;4.97;;
29044;SDS011;16133;49.486;12.176;2022-11-25T02:40:40;10.13;;;5.18;;
29044;SDS011;16133;49.486;12.176;2022-11-25T02:43:10;7.97;;;4.72;;
29044;SDS011;16133;49.486;12.176;2022-11-25T02:45:45;10.48;;;4.88;;
29044;SDS011;16133;49.486;12.176;2022-11-25T02:48:12;9.88;;;4.82;;
29044;SDS011;16133;49.486;12.176;2022-11-25T02:50:37;12.20;;;5.57;;
29044;SDS011;16133;49.486;12.176;2022-11-25T02:53:03;9.85;;;5.53;;
29044;SDS011;16133;49.486;12.176;2022-11-25T02:55:28;10.13;;;5.25;;
29044;SDS011;16133;49.486;12.176;2022-11-25T02:57:54;10.57;;;5.10;;
29044;SDS011;16133;49.486;12.176;2022-11-25T03:00:19;11.25;;;5.18;;
29044;SDS011;16133;49.486;12.176;2022-11-25T03:02:45;11.75;;;5.88;;
29044;SDS011;16133;49.486;12.176;2022-11-25T03:05:11;10.98;;;5.43;;
29044;SDS011;16133;49.486;12.176;2022-11-25T03:07:37;10.60;;;5.72;;
29044;SDS011;16133;49.486;12.176;2022-11-25T03:10:03;11.10;;;6.20;;
29044;SDS011;16133;49.486;12.176;2022-11-25T03:12:29;13.35;;;6.28;;
29044;SDS011;16133;49.486;12.176;2022-11-25T03:14:54;12.63;;;6.45;;
29044;SDS011;16133;49.486;12.176;2022-11-25T03:17:20;13.60;;;6.03;;
29044;SDS011;16133;49.486;12.176;2022-11-25T03:19:45;12.93;;;6.30;;
29044;SDS011;16133;49.486;12.176;2022-11-25T03:22:11;15.40;;;7.28;;
29044;SDS011;16133;49.486;12.176;2022-11-25T03:24:36;12.27;;;6.03;;
29044;SDS011;16133;49.486;12.176;2022-11-25T03:27:02;12.32;;;6.03;;
29044;SDS011;16133;49.486;12.176;2022-11-25T03:29:27;14.15;;;6.53;;
29044;SDS011;16133;49.486;12.176;2022-11-25T03:31:52;13.82;;;6.47;;
29044;SDS011;16133;49.486;12.176;2022-11-25T03:34:18;13.05;;;6.70;;
29044;SDS011;16133;49.486;12.176;2022-11-25T03:36:43;14.48;;;6.60;;
29044;SDS011;16133;49.486;12.176;2022-11-25T03:39:09;12.70;;;5.63;;
29044;SDS011;16133;49.486;12.176;2022-11-25T03:41:34;14.88;;;6.40;;
29044;SDS011;16133;49.486;12.176;2022-11-25T03:43:59;15.70;;;6.75;;
29044;SDS011;16133;49.486;12.176;2022-11-25T03:46:24;14.70;;;6.20;;
29044;SDS011;16133;49.486;12.176;2022-11-25T03:48:50;21.42;;;8.20;;
29044;SDS011;16133;49.486;12.176;2022-11-25T03:51:15;20.20;;;7.97;;
29044;SDS011;16133;49.486;12.176;2022-11-25T03:53:41;25.13;;;10.13;;
29044;SDS011;16133;49.486;12.176;2022-11-25T03:56:06;16.42;;;7.05;;
29044;SDS011;16133;49.486;12.176;2022-11-25T03:58:32;30.92;;;10.35;;
29044;SDS011;16133;49.486;12.176;2022-11-25T04:01:00;20.25;;;9.32;;
29044;SDS011;16133;49.486;12.176;2022-11-25T04:03:27;26.40;;;9.52;;
29044;SDS011;16133;49.486;12.176;2022-11-25T04:05:52;22.55;;;9.13;;
29044;SDS011;16133;49.486;12.176;2022-11-25T04:08:18;23.77;;;9.32;;
29044;SDS011;16133;49.486;12.176;2022-11-25T04:10:43;22.33;;;8.32;;
29044;SDS011;16133;49.486;12.176;2022-11-25T04:13:08;17.83;;;8.45;;
29044;SDS011;16133;49.486;12.176;2022-11-25T04:15:34;22.50;;;8.40;;
29044;SDS011;16133;49.486;12.176;2022-11-25T04:17:59;17.58;;;8.48;;
29044;SDS011;16133;49.486;12.176;2022-11-25T04:20:25;23.00;;;8.98;;
29044;SDS011;16133;49.486;12.176;2022-11-25T04:22:50;21.65;;;9.30;;
29044;SDS011;16133;49.486;12.176;2022-11-25T04:25:15;35.17;;;11.65;;
29044;SDS011;16133;49.486;12.176;2022-11-25T04:27:41;20.52;;;9.38;;
29044;SDS011;16133;49.486;12.176;2022-11-25T04:30:06;19.30;;;8.98;;
29044;SDS011;16133;49.486;12.176;2022-11-25T04:32:32;23.33;;;8.82;;
29044;SDS011;16133;49.486;12.176;2022-11-25T04:34:57;21.35;;;8.40;;
29044;SDS011;16133;49.486;12.176;2022-11-25T04:37:23;20.20;;;8.75;;
29044;SDS011;16133;49.486;12.176;2022-11-25T04:39:48;27.42;;;9.73;;
29044;SDS011;16133;49.486;12.176;2022-11-25T04:42:14;27.58;;;9.85;;
29044;SDS011;16133;49.486;12.176;2022-11-25T04:44:59;24.95;;;9.20;;
29044;SDS011;16133;49.486;12.176;2022-11-25T04:47:26;25.70;;;9.77;;
29044;SDS011;16133;49.486;12.176;2022-11-25T04:49:53;28.65;;;10.75;;
29044;SDS011;16133;49.486;12.176;2022-11-25T04:52:18;29.63;;;10.73;;
29044;SDS011;16133;49.486;12.176;2022-11-25T04:54:44;26.55;;;9.75;;
29044;SDS011;16133;49.486;12.176;2022-11-25T04:57:11;23.38;;;9.77;;
29044;SDS011;16133;49.486;12.176;2022-11-25T04:59:38;23.60;;;9.35;;
29044;SDS011;16133;49.486;12.176;2022-11-25T05:02:15;30.63;;;10.80;;
29044;SDS011;16133;49.486;12.176;2022-11-25T05:04:42;28.60;;;10.02;;
29044;SDS011;16133;49.486;12.176;2022-11-25T05:07:09;27.10;;;10.05;;
29044;SDS011;16133;49.486;12.176;2022-11-25T05:09:35;32.25;;;10.55;;
29044;SDS011;16133;49.486;12.176;2022-11-25T05:12:01;27.48;;;10.88;;
29044;SDS011;16133;49.486;12.176;2022-11-25T05:14:26;32.72;;;10.80;;
29044;SDS011;16133;49.486;12.176;2022-11-25T05:16:52;32.75;;;12.00;;
29044;SDS011;16133;49.486;12.176;2022-11-25T05:19:18;29.45;;;9.50;;
29044;SDS011;16133;49.486;12.176;2022-11-25T05:21:44;26.33;;;10.35;;
29044;SDS011;16133;49.486;12.176;2022-11-25T05:24:09;28.42;;;9.63;;
29044;SDS011;16133;49.486;12.176;2022-11-25T05:26:34;27.05;;;10.93;;
29044;SDS011;16133;49.486;12.176;2022-11-25T05:32:22;26.73;;;9.88;;
29044;SDS011;16133;49.486;12.176;2022-11-25T05:34:47;28.13;;;11.00;;
29044;SDS011;16133;49.486;12.176;2022-11-25T05:37:13;29.83;;;10.38;;
29044;SDS011;16133;49.486;12.176;2022-11-25T05:39:38;26.05;;;8.80;;
29044;SDS011;16133;49.486;12.176;2022-11-25T05:42:04;31.50;;;9.90;;
29044;SDS011;16133;49.486;12.176;2022-11-25T05:44:29;30.20;;;9.98;;
29044;SDS011;16133;49.486;12.176;2022-11-25T05:46:54;27.83;;;8.48;;
29044;SDS011;16133;49.486;12.176;2022-11-25T05:49:20;30.30;;;9.45;;
29044;SDS011;16133;49.486;12.176;2022-11-25T05:51:45;29.25;;;9.10;;
29044;SDS011;16133;49.486;12.176;2022-11-25T05:54:11;27.35;;;9.45;;
29044;SDS011;16133;49.486;12.176;2022-11-25T05:56:37;50.45;;;11.98;;
29044;SDS011;16133;49.486;12.176;2022-11-25T05:59:03;30.33;;;9.35;;
29044;SDS011;16133;49.486;12.176;2022-11-25T06:01:29;36.92;;;10.25;;
29044;SDS011;16133;49.486;12.176;2022-11-25T06:03:58;39.38;;;11.90;;
29044;SDS011;16133;49.486;12.176;2022-11-25T06:06:24;55.05;;;14.30;;
29044;SDS011;16133;49.486;12.176;2022-11-25T06:08:49;46.60;;;11.55;;
29044;SDS011;16133;49.486;12.176;2022-11-25T06:11:15;33.83;;;10.82;;
29044;SDS011;16133;49.486;12.176;2022-11-25T06:13:41;46.75;;;13.00;;
29044;SDS011;16133;49.486;12.176;2022-11-25T06:16:11;30.67;;;10.35;;
29044;SDS011;16133;49.486;12.176;2022-11-25T06:18:38;34.35;;;11.00;;
29044;SDS011;16133;49.486;12.176;2022-11-25T06:21:05;55.75;;;12.98;;
29044;SDS011;16133;49.486;12.176;2022-11-25T06:23:31;34.17;;;11.30;;
29044;SDS011;16133;49.486;12.176;2022-11-25T06:26:05;40.40;;;11.77;;
29044;SDS011;16133;49.486;12.176;2022-11-25T06:28:32;40.53;;;11.20;;
29044;SDS011;16133;49.486;12.176;2022-11-25T06:31:08;34.90;;;10.05;;
29044;SDS011;16133;49.486;12.176;2022-11-25T06:33:36;37.17;;;11.25;;
29044;SDS011;16133;49.486;12.176;2022-11-25T06:36:03;37.83;;;11.10;;
29044;SDS011;16133;49.486;12.176;2022-11-25T06:38:29;45.05;;;12.15;;
29044;SDS011;16133;49.486;12.176;2022-11-25T06:40:59;55.33;;;14.02;;
29044;SDS011;16133;49.486;12.176;2022-11-25T06:43:26;54.10;;;13.80;;
29044;SDS011;16133;49.486;12.176;2022-11-25T06:45:51;32.83;;;10.05;;
29044;SDS011;16133;49.486;12.176;2022-11-25T06:48:17;39.97;;;10.98;;
29044;SDS011;16133;49.486;12.176;2022-11-25T06:50:42;62.38;;;15.85;;
29044;SDS011;16133;49.486;12.176;2022-11-25T06:53:07;41.33;;;13.52;;
29044;SDS011;16133;49.486;12.176;2022-11-25T06:55:33;40.33;;;12.65;;
29044;SDS011;16133;49.486;12.176;2022-11-25T06:57:58;41.03;;;13.15;;
29044;SDS011;16133;49.486;12.176;2022-11-25T07:00:23;57.05;;;19.58;;
29044;SDS011;16133;49.486;12.176;2022-11-25T07:02:49;57.63;;;20.55;;
29044;SDS011;16133;49.486;12.176;2022-11-25T07:05:14;48.67;;;16.90;;
29044;SDS011;16133;49.486;12.176;2022-11-25T07:07:39;71.60;;;17.85;;
29044;SDS011;16133;49.486;12.176;2022-11-25T07:10:05;40.03;;;14.40;;
29044;SDS011;16133;49.486;12.176;2022-11-25T07:12:31;64.63;;;17.02;;
29044;SDS011;16133;49.486;12.176;2022-11-25T07:14:56;71.68;;;26.95;;
29044;SDS011;16133;49.486;12.176;2022-11-25T07:17:22;73.95;;;29.25;;
29044;SDS011;16133;49.486;12.176;2022-11-25T07:19:47;95.80;;;24.52;;
29044;SDS011;16133;49.486;12.176;2022-11-25T07:22:12;55.20;;;17.67;;
29044;SDS011;16133;49.486;12.176;2022-11-25T07:24:38;42.55;;;14.20;;
29044;SDS011;16133;49.486;12.176;2022-11-25T07:27:03;50.03;;;15.25;;
29044;SDS011;16133;49.486;12.176;2022-11-25T07:29:30;66.57;;;14.73;;
29044;SDS011;16133;49.486;12.176;2022-11-25T07:31:56;50.90;;;14.40;;
29044;SDS011;16133;49.486;12.176;2022-11-25T07:34:21;46.78;;;13.32;;
29044;SDS011;16133;49.486;12.176;2022-11-25T07:36:47;45.80;;;13.02;;
29044;SDS011;16133;49.486;12.176;2022-11-25T07:39:18;49.72;;;13.57;;
29044;SDS011;16133;49.486;12.176;2022-11-25T07:41:48;49.88;;;15.38;;
29044;SDS011;16133;49.486;12.176;2022-11-25T07:44:17;45.95;;;13.18;;
29044;SDS011;16133;49.486;12.176;2022-11-25T07:46:44;51.55;;;15.30;;
29044;SDS011;16133;49.486;12.176;2022-11-25T07:49:15;48.10;;;14.20;;
29044;SDS011;16133;49.486;12.176;2022-11-25T07:51:47;54.33;;;15.43;;
29044;SDS011;16133;49.486;12.176;2022-11-25T07:54:13;40.83;;;13.77;;
29044;SDS011;16133;49.486;12.176;2022-11-25T07:56:39;48.40;;;14.50;;
29044;SDS011;16133;49.486;12.176;2022-11-25T07:59:07;40.28;;;14.10;;
29044;SDS011;16133;49.486;12.176;2022-11-25T08:01:36;63.97;;;16.70;;
29044;SDS011;16133;49.486;12.176;2022-11-25T08:04:02;39.58;;;13.50;;
29044;SDS011;16133;49.486;12.176;2022-11-25T08:06:27;41.65;;;12.77;;
29044;SDS011;16133;49.486;12.176;2022-11-25T08:08:54;40.22;;;12.35;;
29044;SDS011;16133;49.486;12.176;2022-11-25T08:11:22;41.75;;;13.02;;
29044;SDS011;16133;49.486;12.176;2022-11-25T08:13:55;44.13;;;14.18;;
29044;SDS011;16133;49.486;12.176;2022-11-25T08:16:23;39.10;;;12.80;;
29044;SDS011;16133;49.486;12.176;2022-11-25T08:18:52;35.50;;;12.18;;
29044;SDS011;16133;49.486;12.176;2022-11-25T08:21:18;35.25;;;12.32;;
29044;SDS011;16133;49.486;12.176;2022-11-25T08:23:43;40.80;;;13.00;;
29044;SDS011;16133;49.486;12.176;2022-11-25T08:26:13;41.63;;;14.63;;
29044;SDS011;16133;49.486;12.176;2022-11-25T08:28:44;51.30;;;14.93;;
29044;SDS011;16133;49.486;12.176;2022-11-25T08:31:18;42.95;;;13.02;;
29044;SDS011;16133;49.486;12.176;2022-11-25T08:33:46;40.38;;;13.07;;
29044;SDS011;16133;49.486;12.176;2022-11-25T08:36:12;34.47;;;12.38;;
29044;SDS011;16133;49.486;12.176;2022-11-25T08:38:38;29.77;;;11.88;;
29044;SDS011;16133;49.486;12.176;2022-11-25T08:41:18;34.83;;;11.10;;
29044;SDS011;16133;49.486;12.176;2022-11-25T08:43:48;36.58;;;12.60;;
29044;SDS011;16133;49.486;12.176;2022-11-25T08:46:16;30.75;;;11.32;;
29044;SDS011;16133;49.486;12.176;2022-11-25T08:48:43;37.10;;;12.55;;
29044;SDS011;16133;49.486;12.176;2022-11-25T08:51:09;33.85;;;11.98;;
29044;SDS011;16133;49.486;12.176;2022-11-25T08:53:37;34.67;;;11.75;;
29044;SDS011;16133;49.486;12.176;2022-11-25T08:56:03;33.10;;;12.20;;
29044;SDS011;16133;49.486;12.176;2022-11-25T08:58:30;33.90;;;12.02;;
29044;SDS011;16133;49.486;12.176;2022-11-25T09:00:55;32.58;;;12.65;;
29044;SDS011;16133;49.486;12.176;2022-11-25T09:03:21;39.55;;;11.15;;
29044;SDS011;16133;49.486;12.176;2022-11-25T09:05:46;30.25;;;10.80;;
29044;SDS011;16133;49.486;12.176;2022-11-25T09:08:13;29.17;;;10.50;;
29044;SDS011;16133;49.486;12.176;2022-11-25T09:10:38;28.73;;;10.82;;
29044;SDS011;16133;49.486;12.176;2022-11-25T09:13:04;40.72;;;12.93;;
29044;SDS011;16133;49.486;12.176;2022-11-25T09:15:30;33.67;;;11.32;;
29044;SDS011;16133;49.486;12.176;2022-11-25T09:18:03;32.63;;;12.15;;
29044;SDS011;16133;49.486;12.176;2022-11-25T09:20:31;31.90;;;12.27;;
29044;SDS011;16133;49.486;12.176;2022-11-25T09:23:00;32.88;;;11.27;;
29044;SDS011;16133;49.486;12.176;2022-11-25T09:25:27;35.03;;;11.32;;
29044;SDS011;16133;49.486;12.176;2022-11-25T09:27:54;29.73;;;10.57;;
29044;SDS011;16133;49.486;12.176;2022-11-25T09:30:20;27.92;;;9.82;;
29044;SDS011;16133;49.486;12.176;2022-11-25T09:32:47;35.50;;;12.38;;
29044;SDS011;16133;49.486;12.176;2022-11-25T09:35:14;35.28;;;11.70;;
29044;SDS011;16133;49.486;12.176;2022-11-25T09:37:39;27.83;;;11.65;;
29044;SDS011;16133;49.486;12.176;2022-11-25T09:43:07;25.35;;;10.00;;
29044;SDS011;16133;49.486;12.176;2022-11-25T09:52:06;26.63;;;11.25;;
29044;SDS011;16133;49.486;12.176;2022-11-25T09:54:38;27.95;;;10.98;;
29044;SDS011;16133;49.486;12.176;2022-11-25T09:59:49;28.60;;;10.45;;
29044;SDS011;16133;49.486;12.176;2022-11-25T10:02:25;24.50;;;9.50;;
29044;SDS011;16133;49.486;12.176;2022-11-25T10:05:08;26.95;;;10.05;;
29044;SDS011;16133;49.486;12.176;2022-11-25T10:07:39;28.85;;;10.93;;
29044;SDS011;16133;49.486;12.176;2022-11-25T10:10:14;23.50;;;9.88;;
29044;SDS011;16133;49.486;12.176;2022-11-25T10:12:46;29.98;;;11.57;;
29044;SDS011;16133;49.486;12.176;2022-11-25T10:20:45;26.23;;;9.88;;
29044;SDS011;16133;49.486;12.176;2022-11-25T10:23:21;22.08;;;9.63;;
29044;SDS011;16133;49.486;12.176;2022-11-25T10:25:58;19.45;;;9.10;;
29044;SDS011;16133;49.486;12.176;2022-11-25T10:28:31;24.40;;;10.45;;
29044;SDS011;16133;49.486;12.176;2022-11-25T10:38:49;21.13;;;9.73;;
29044;SDS011;16133;49.486;12.176;2022-11-25T10:41:23;21.60;;;9.63;;
29044;SDS011;16133;49.486;12.176;2022-11-25T10:43:52;22.80;;;8.98;;
29044;SDS011;16133;49.486;12.176;2022-11-25T10:54:23;15.65;;;7.50;;
29044;SDS011;16133;49.486;12.176;2022-11-25T11:01:52;14.35;;;6.90;;
29044;SDS011;16133;49.486;12.176;2022-11-25T11:04:30;15.95;;;7.75;;
29044;SDS011;16133;49.486;12.176;2022-11-25T11:07:06;14.93;;;7.47;;
29044;SDS011;16133;49.486;12.176;2022-11-25T11:09:37;16.00;;;8.07;;
29044;SDS011;16133;49.486;12.176;2022-11-25T11:12:27;14.23;;;8.07;;
29044;SDS011;16133;49.486;12.176;2022-11-25T11:14:51;13.98;;;7.85;;
29044;SDS011;16133;49.486;12.176;2022-11-25T11:17:39;11.82;;;6.75;;
29044;SDS011;16133;49.486;12.176;2022-11-25T11:22:33;12.82;;;7.10;;
29044;SDS011;16133;49.486;12.176;2022-11-25T11:25:43;15.85;;;7.63;;
29044;SDS011;16133;49.486;12.176;2022-11-25T11:27:51;15.38;;;7.15;;
29044;SDS011;16133;49.486;12.176;2022-11-25T11:30:21;11.95;;;6.82;;
29044;SDS011;16133;49.486;12.176;2022-11-25T11:37:54;10.32;;;5.63;;
29044;SDS011;16133;49.486;12.176;2022-11-25T11:40:30;14.40;;;6.57;;
29044;SDS011;16133;49.486;12.176;2022-11-25T11:43:22;9.35;;;5.10;;
29044;SDS011;16133;49.486;12.176;2022-11-25T11:56:45;14.43;;;6.07;;
29044;SDS011;16133;49.486;12.176;2022-11-25T12:05:23;15.05;;;6.70;;
29044;SDS011;16133;49.486;12.176;2022-11-25T12:10:26;13.13;;;6.28;;
29044;SDS011;16133;49.486;12.176;2022-11-25T12:23:58;17.25;;;7.90;;
29044;SDS011;16133;49.486;12.176;2022-11-25T12:32:00;7.03;;;4.82;;
29044;SDS011;16133;49.486;12.176;2022-11-25T12:35:12;14.18;;;4.97;;
29044;SDS011;16133;49.486;12.176;2022-11-25T12:37:33;10.80;;;5.70;;
29044;SDS011;16133;49.486;12.176;2022-11-25T12:40:11;9.15;;;5.63;;
29044;SDS011;16133;49.486;12.176;2022-11-25T12:42:40;8.98;;;4.72;;
29044;SDS011;16133;49.486;12.176;2022-11-25T12:45:14;10.88;;;4.95;;
29044;SDS011;16133;49.486;12.176;2022-11-25T12:47:45;7.85;;;4.53;;
29044;SDS011;16133;49.486;12.176;2022-11-25T12:56:00;8.43;;;4.65;;
29044;SDS011;16133;49.486;12.176;2022-11-25T13:14:29;13.90;;;7.10;;
29044;SDS011;16133;49.486;12.176;2022-11-25T13:17:01;8.82;;;5.05;;
29044;SDS011;16133;49.486;12.176;2022-11-25T13:19:27;9.48;;;4.85;;
29044;SDS011;16133;49.486;12.176;2022-11-25T13:24:32;8.02;;;4.05;;
29044;SDS011;16133;49.486;12.176;2022-11-25T13:27:02;31.08;;;11.45;;
29044;SDS011;16133;49.486;12.176;2022-11-25T13:31:58;17.13;;;9.40;;
29044;SDS011;16133;49.486;12.176;2022-11-25T13:34:25;20.95;;;8.93;;
29044;SDS011;16133;49.486;12.176;2022-11-25T13:36:51;10.40;;;4.68;;
29044;SDS011;16133;49.486;12.176;2022-11-25T13:44:24;8.82;;;5.22;;
29044;SDS011;16133;49.486;12.176;2022-11-25T13:46:54;13.27;;;6.60;;
29044;SDS011;16133;49.486;12.176;2022-11-25T13:54:47;10.13;;;5.75;;
29044;SDS011;16133;49.486;12.176;2022-11-25T13:59:59;10.57;;;5.80;;
29044;SDS011;16133;49.486;12.176;2022-11-25T14:16:34;7.93;;;4.63;;
29044;SDS011;16133;49.486;12.176;2022-11-25T14:25:23;9.52;;;5.47;;
29044;SDS011;16133;49.486;12.176;2022-11-25T14:27:55;12.38;;;5.82;;
29044;SDS011;16133;49.486;12.176;2022-11-25T14:30:31;10.50;;;5.82;;
29044;SDS011;16133;49.486;12.176;2022-11-25T14:33:01;12.65;;;6.68;;
29044;SDS011;16133;49.486;12.176;2022-11-25T14:35:34;12.10;;;7.10;;
29044;SDS011;16133;49.486;12.176;2022-11-25T14:38:06;15.77;;;8.35;;
29044;SDS011;16133;49.486;12.176;2022-11-25T14:40:41;14.48;;;8.95;;
29044;SDS011;16133;49.486;12.176;2022-11-25T14:43:16;16.50;;;9.02;;
29044;SDS011;16133;49.486;12.176;2022-11-25T14:45:46;15.80;;;8.30;;
29044;SDS011;16133;49.486;12.176;2022-11-25T14:48:12;17.08;;;7.97;;
29044;SDS011;16133;49.486;12.176;2022-11-25T14:51:03;16.58;;;8.55;;
29044;SDS011;16133;49.486;12.176;2022-11-25T14:53:35;16.33;;;7.78;;
29044;SDS011;16133;49.486;12.176;2022-11-25T14:56:04;14.70;;;7.25;;
29044;SDS011;16133;49.486;12.176;2022-11-25T14:58:30;16.65;;;9.02;;
29044;SDS011;16133;49.486;12.176;2022-11-25T15:01:00;18.25;;;10.18;;
29044;SDS011;16133;49.486;12.176;2022-11-25T15:03:29;17.30;;;9.75;;
29044;SDS011;16133;49.486;12.176;2022-11-25T15:06:02;13.82;;;8.57;;
29044;SDS011;16133;49.486;12.176;2022-11-25T15:08:36;15.77;;;9.45;;
29044;SDS011;16133;49.486;12.176;2022-11-25T15:11:16;13.80;;;8.02;;
29044;SDS011;16133;49.486;12.176;2022-11-25T15:14:05;15.40;;;8.13;;
29044;SDS011;16133;49.486;12.176;2022-11-25T15:16:37;14.00;;;7.35;;
29044;SDS011;16133;49.486;12.176;2022-11-25T15:19:06;14.45;;;8.73;;
29044;SDS011;16133;49.486;12.176;2022-11-25T15:21:40;17.55;;;9.68;;
29044;SDS011;16133;49.486;12.176;2022-11-25T15:24:19;16.10;;;9.50;;
29044;SDS011;16133;49.486;12.176;2022-11-25T15:26:51;14.98;;;8.82;;
29044;SDS011;16133;49.486;12.176;2022-11-25T15:29:18;14.23;;;9.15;;
29044;SDS011;16133;49.486;12.176;2022-11-25T15:31:44;17.02;;;8.95;;
29044;SDS011;16133;49.486;12.176;2022-11-25T15:34:12;17.67;;;10.52;;
29044;SDS011;16133;49.486;12.176;2022-11-25T15:36:43;16.45;;;9.57;;
29044;SDS011;16133;49.486;12.176;2022-11-25T15:41:47;14.50;;;7.97;;
29044;SDS011;16133;49.486;12.176;2022-11-25T15:44:35;13.75;;;7.90;;
29044;SDS011;16133;49.486;12.176;2022-11-25T15:49:58;12.88;;;7.95;;
29044;SDS011;16133;49.486;12.176;2022-11-25T15:52:24;16.02;;;8.10;;
29044;SDS011;16133;49.486;12.176;2022-11-25T15:54:54;12.95;;;6.75;;
29044;SDS011;16133;49.486;12.176;2022-11-25T15:57:34;14.52;;;8.27;;
29044;SDS011;16133;49.486;12.176;2022-11-25T16:13:23;21.23;;;11.00;;
29044;SDS011;16133;49.486;12.176;2022-11-25T16:26:48;16.33;;;9.80;;
29044;SDS011;16133;49.486;12.176;2022-11-25T16:31:53;19.05;;;10.30;;
29044;SDS011;16133;49.486;12.176;2022-11-25T16:34:19;18.40;;;10.35;;
29044;SDS011;16133;49.486;12.176;2022-11-25T16:36:48;18.13;;;9.50;;
29044;SDS011;16133;49.486;12.176;2022-11-25T16:39:13;18.90;;;10.75;;
29044;SDS011;16133;49.486;12.176;2022-11-25T16:41:39;20.35;;;11.65;;
29044;SDS011;16133;49.486;12.176;2022-11-25T16:44:16;21.52;;;10.88;;
29044;SDS011;16133;49.486;12.176;2022-11-25T16:46:43;27.80;;;15.38;;
29044;SDS011;16133;49.486;12.176;2022-11-25T16:49:13;26.02;;;14.57;;
29044;SDS011;16133;49.486;12.176;2022-11-25T16:51:39;24.77;;;14.40;;
29044;SDS011;16133;49.486;12.176;2022-11-25T16:54:05;28.52;;;16.02;;
29044;SDS011;16133;49.486;12.176;2022-11-25T16:56:32;31.27;;;17.98;;
29044;SDS011;16133;49.486;12.176;2022-11-25T16:59:00;34.08;;;19.40;;
29044;SDS011;16133;49.486;12.176;2022-11-25T17:01:27;29.40;;;17.88;;
29044;SDS011;16133;49.486;12.176;2022-11-25T17:03:53;36.13;;;21.38;;
29044;SDS011;16133;49.486;12.176;2022-11-25T17:06:22;32.45;;;17.25;;
29044;SDS011;16133;49.486;12.176;2022-11-25T17:08:50;32.03;;;19.63;;
29044;SDS011;16133;49.486;12.176;2022-11-25T17:11:20;28.20;;;17.23;;
29044;SDS011;16133;49.486;12.176;2022-11-25T17:13:52;28.30;;;16.67;;
29044;SDS011;16133;49.486;12.176;2022-11-25T17:16:19;25.83;;;15.15;;
29044;SDS011;16133;49.486;12.176;2022-11-25T17:18:49;27.23;;;15.90;;
29044;SDS011;16133;49.486;12.176;2022-11-25T17:21:17;28.02;;;16.30;;
29044;SDS011;16133;49.486;12.176;2022-11-25T17:23:43;25.33;;;13.80;;
29044;SDS011;16133;49.486;12.176;2022-11-25T17:26:17;30.40;;;17.00;;
29044;SDS011;16133;49.486;12.176;2022-11-25T17:28:54;30.60;;;14.80;;
29044;SDS011;16133;49.486;12.176;2022-11-25T17:31:25;29.27;;;14.50;;
29044;SDS011;16133;49.486;12.176;2022-11-25T17:33:53;20.83;;;12.50;;
29044;SDS011;16133;49.486;12.176;2022-11-25T17:36:20;28.23;;;13.93;;
29044;SDS011;16133;49.486;12.176;2022-11-25T17:38:46;28.85;;;13.93;;
29044;SDS011;16133;49.486;12.176;2022-11-25T17:41:12;21.40;;;13.00;;